createdAt,value
2023-03-05T00:01:22.804Z,52.87
2023-03-05T00:03:52.231Z,46.07
2023-03-05T00:06:20.383Z,44.80
2023-03-05T00:08:49.794Z,42.20
2023-03-05T00:11:17.557Z,51.07
2023-03-05T00:13:45.426Z,45.40
2023-03-05T00:16:15.492Z,41.33
2023-03-05T00:18:43.310Z,44.93
2023-03-05T00:21:20.322Z,46.13
2023-03-05T00:23:50.647Z,53.00
2023-03-05T00:26:18.759Z,44.50
2023-03-05T00:28:49.818Z,48.83
2023-03-05T00:31:18.132Z,48.80
2023-03-05T00:33:46.219Z,45.37
2023-03-05T00:36:14.023Z,47.60
2023-03-05T00:38:41.809Z,44.43
2023-03-05T00:41:11.147Z,44.77
2023-03-05T00:43:38.927Z,51.10
2023-03-05T00:46:06.819Z,47.53
2023-03-05T00:48:34.624Z,48.40
2023-03-05T00:51:02.380Z,51.53
2023-03-05T00:53:30.182Z,46.07
2023-03-05T00:55:58.002Z,43.80
2023-03-05T00:58:27.313Z,48.70
2023-03-05T01:00:59.121Z,58.70
2023-03-05T01:03:26.990Z,47.03
2023-03-05T01:05:54.792Z,53.53
2023-03-05T01:08:22.557Z,43.60
2023-03-05T01:10:50.354Z,53.00
2023-03-05T01:13:18.189Z,47.47
2023-03-05T01:15:48.678Z,53.93
2023-03-05T01:18:16.593Z,56.10
2023-03-05T01:20:44.658Z,53.30
2023-03-05T01:23:12.535Z,52.57
2023-03-05T01:25:40.785Z,50.37
2023-03-05T01:28:08.686Z,62.00
2023-03-05T01:30:36.682Z,47.90
2023-03-05T01:33:05.842Z,51.00
2023-03-05T01:35:33.804Z,54.50
2023-03-05T01:38:01.649Z,51.17
2023-03-05T01:40:31.901Z,55.63
2023-03-05T01:43:02.397Z,52.37
2023-03-05T01:45:32.676Z,53.80
2023-03-05T01:48:00.500Z,54.10
2023-03-05T01:50:29.759Z,55.50
2023-03-05T01:53:02.389Z,50.90
2023-03-05T01:55:32.801Z,52.27
2023-03-05T01:58:04.261Z,51.67
2023-03-05T02:00:36.252Z,53.37
2023-03-05T02:03:06.993Z,50.20
2023-03-05T02:05:38.364Z,45.60
2023-03-05T02:08:08.464Z,56.60
2023-03-05T02:10:38.619Z,49.33
2023-03-05T02:13:10.564Z,45.47
2023-03-05T02:15:39.385Z,58.03
2023-03-05T02:18:07.939Z,50.17
2023-03-05T02:20:47.153Z,49.33
2023-03-05T02:23:17.653Z,57.33
2023-03-05T02:25:45.610Z,55.00
2023-03-05T02:28:17.227Z,55.63
2023-03-05T02:30:45.232Z,50.07
2023-03-05T02:33:14.979Z,60.33
2023-03-05T02:35:43.601Z,58.60
2023-03-05T02:38:11.440Z,54.20
2023-03-05T02:40:40.907Z,52.87
2023-03-05T02:43:09.348Z,51.27
2023-03-05T02:45:37.400Z,62.90
2023-03-05T02:48:05.476Z,48.83
2023-03-05T02:50:33.960Z,49.57
2023-03-05T02:53:01.760Z,51.07
2023-03-05T02:55:29.516Z,54.97
2023-03-05T02:57:58.625Z,55.80
2023-03-05T03:00:26.986Z,58.00
2023-03-05T03:02:54.797Z,52.87
2023-03-05T03:05:22.964Z,57.87
2023-03-05T03:07:51.032Z,52.03
2023-03-05T03:10:18.985Z,52.90
2023-03-05T03:12:46.887Z,51.63
2023-03-05T03:15:17.933Z,54.63
2023-03-05T03:17:45.908Z,48.63
2023-03-05T03:20:17.071Z,58.73
2023-03-05T03:22:46.220Z,44.20
2023-03-05T03:25:16.050Z,60.03
2023-03-05T03:27:43.853Z,53.83
2023-03-05T03:30:13.004Z,45.17
2023-03-05T03:32:42.416Z,54.13
2023-03-05T03:35:11.438Z,57.03
2023-03-05T03:37:39.369Z,54.73
2023-03-05T03:40:08.635Z,62.90
2023-03-05T03:42:36.463Z,58.70
2023-03-05T03:45:04.791Z,56.67
2023-03-05T03:47:32.651Z,48.90
2023-03-05T03:50:02.002Z,57.77
2023-03-05T03:52:29.807Z,50.33
2023-03-05T03:55:01.526Z,50.63
2023-03-05T03:57:30.974Z,52.67
2023-03-05T03:59:58.733Z,49.67
2023-03-05T04:02:27.318Z,52.17
2023-03-05T04:04:55.154Z,44.00
2023-03-05T04:07:24.331Z,47.57
2023-03-05T04:09:52.412Z,48.70
2023-03-05T04:12:20.234Z,52.77
2023-03-05T04:14:49.116Z,44.90
2023-03-05T04:17:17.663Z,44.57
2023-03-05T04:19:45.524Z,44.73
2023-03-05T04:22:13.489Z,46.90
2023-03-05T04:24:43.000Z,44.47
2023-03-05T04:27:11.897Z,43.73
2023-03-05T04:29:39.740Z,46.07
2023-03-05T04:32:08.034Z,46.13
2023-03-05T04:34:37.696Z,49.00
2023-03-05T04:37:05.643Z,40.10
2023-03-05T04:39:33.420Z,45.00
2023-03-05T04:42:02.529Z,43.43
2023-03-05T04:44:30.315Z,44.00
2023-03-05T04:46:58.095Z,43.10
2023-03-05T04:49:25.985Z,39.80
2023-03-05T04:51:53.892Z,37.97
2023-03-05T04:54:22.356Z,42.40
2023-03-05T04:56:50.146Z,44.27
2023-03-05T04:59:19.228Z,41.00
2023-03-05T05:01:47.119Z,40.33
2023-03-05T05:04:14.987Z,42.60
2023-03-05T05:06:42.787Z,40.63
2023-03-05T05:09:10.632Z,45.37
2023-03-05T05:11:38.381Z,45.67
2023-03-05T05:14:06.179Z,43.40
2023-03-05T05:16:35.338Z,37.93
2023-03-05T05:19:03.792Z,37.93
2023-03-05T05:21:31.643Z,46.47
2023-03-05T05:23:59.393Z,37.40
2023-03-05T05:26:27.713Z,38.23
2023-03-05T05:28:55.495Z,42.87
2023-03-05T05:31:23.497Z,39.00
2023-03-05T05:33:52.626Z,43.23
2023-03-05T05:36:22.285Z,38.23
2023-03-05T05:38:50.693Z,36.93
2023-03-05T05:41:19.863Z,32.80
2023-03-05T05:43:47.859Z,42.07
2023-03-05T05:46:18.517Z,35.30
2023-03-05T05:48:46.984Z,40.27
2023-03-05T05:51:18.324Z,35.13
2023-03-05T05:53:46.339Z,35.80
2023-03-05T05:56:16.437Z,36.03
2023-03-05T05:58:47.085Z,42.80
2023-03-05T06:01:17.240Z,36.10
2023-03-05T06:03:45.316Z,31.50
2023-03-05T06:06:15.188Z,35.67
2023-03-05T06:08:44.562Z,40.00
2023-03-05T06:11:12.767Z,31.37
2023-03-05T06:13:40.820Z,29.23
2023-03-05T06:16:12.706Z,32.93
2023-03-05T06:18:40.477Z,31.00
2023-03-05T06:21:10.257Z,31.00
2023-03-05T06:23:38.052Z,34.03
2023-03-05T06:26:09.222Z,32.10
2023-03-05T06:28:37.114Z,34.00
2023-03-05T06:31:06.651Z,35.40
2023-03-05T06:33:37.027Z,33.27
2023-03-05T06:36:05.663Z,28.70
2023-03-05T06:38:34.029Z,27.93
2023-03-05T06:41:02.683Z,33.70
2023-03-05T06:43:33.324Z,33.10
2023-03-05T06:46:05.149Z,34.47
2023-03-05T06:48:33.346Z,31.07
2023-03-05T06:51:01.156Z,33.27
2023-03-05T06:53:29.368Z,34.00
2023-03-05T06:55:57.181Z,29.60
2023-03-05T06:58:26.021Z,33.90
2023-03-05T07:00:55.153Z,30.60
2023-03-05T07:03:22.922Z,27.60
2023-03-05T07:05:50.736Z,29.70
2023-03-05T07:08:18.667Z,38.30
2023-03-05T07:10:46.461Z,35.90
2023-03-05T07:13:14.232Z,34.70
2023-03-05T07:15:42.743Z,37.50
2023-03-05T07:18:11.906Z,28.20
2023-03-05T07:20:39.724Z,31.43
2023-03-05T07:23:07.549Z,31.70
2023-03-05T07:25:37.250Z,29.90
2023-03-05T07:28:06.369Z,31.63
2023-03-05T07:30:34.317Z,31.70
2023-03-05T07:33:02.643Z,29.70
2023-03-05T07:35:31.768Z,28.23
2023-03-05T07:37:59.634Z,30.17
2023-03-05T07:40:27.412Z,28.90
2023-03-05T07:42:55.243Z,32.23
2023-03-05T07:45:22.998Z,33.80
2023-03-05T07:47:52.555Z,29.33
2023-03-05T07:50:20.671Z,35.00
2023-03-05T07:52:49.796Z,28.33
2023-03-05T07:55:17.765Z,28.37
2023-03-05T07:57:45.594Z,29.40
2023-03-05T08:00:14.404Z,22.70
2023-03-05T08:02:42.326Z,28.57
2023-03-05T08:05:10.578Z,34.50
2023-03-05T08:07:38.459Z,29.73
2023-03-05T08:10:09.558Z,24.20
2023-03-05T08:12:37.382Z,31.93
2023-03-05T08:15:05.701Z,26.97
2023-03-05T08:17:33.447Z,29.70
2023-03-05T08:20:05.362Z,24.53
2023-03-05T08:22:34.839Z,32.90
2023-03-05T08:25:02.944Z,29.33
2023-03-05T08:27:32.225Z,27.20
2023-03-05T08:30:01.994Z,30.30
2023-03-05T08:32:29.907Z,32.03
2023-03-05T08:34:58.471Z,27.70
2023-03-05T08:37:26.471Z,28.03
2023-03-05T08:39:56.147Z,31.80
2023-03-05T08:42:24.485Z,28.10
2023-03-05T08:44:53.674Z,30.00
2023-03-05T08:47:21.443Z,34.93
2023-03-05T08:49:49.268Z,34.00
2023-03-05T08:52:17.001Z,36.33
2023-03-05T08:54:44.756Z,30.23
2023-03-05T08:57:12.495Z,29.83
2023-03-05T08:59:40.365Z,28.73
2023-03-05T09:02:11.357Z,30.43
2023-03-05T09:04:39.589Z,34.13
2023-03-05T09:07:07.609Z,34.30
2023-03-05T09:09:35.447Z,27.20
2023-03-05T09:12:03.478Z,31.83
2023-03-05T09:14:31.342Z,32.60
2023-03-05T09:16:59.556Z,28.00
2023-03-05T09:19:29.007Z,27.23
2023-03-05T09:21:57.294Z,26.60
2023-03-05T09:24:25.065Z,28.53
2023-03-05T09:26:52.822Z,29.00
2023-03-05T09:29:20.663Z,25.00
2023-03-05T09:31:52.812Z,32.57
2023-03-05T09:34:21.354Z,23.70
2023-03-05T09:36:50.605Z,19.80
2023-03-05T09:39:18.773Z,20.10
2023-03-05T09:42:28.860Z,21.37
2023-03-05T09:45:13.895Z,19.17
2023-03-05T09:47:54.246Z,24.80
2023-03-05T09:50:35.780Z,20.40
2023-03-05T09:53:14.150Z,18.80
2023-03-05T09:55:45.356Z,20.43
2023-03-05T09:58:15.798Z,22.23
2023-03-05T10:00:46.901Z,21.47
2023-03-05T10:03:21.053Z,23.00
2023-03-05T10:05:59.542Z,22.10
2023-03-05T10:08:34.156Z,22.80
2023-03-05T10:11:06.935Z,25.33
2023-03-05T10:13:40.901Z,29.07
2023-03-05T10:16:32.352Z,28.83
2023-03-05T10:19:07.339Z,26.80
2023-03-05T10:21:41.335Z,34.40
2023-03-05T10:24:17.941Z,35.43
2023-03-05T10:26:58.499Z,28.40
2023-03-05T10:29:51.575Z,32.43
2023-03-05T10:32:33.193Z,33.93
2023-03-05T10:35:25.461Z,27.53
2023-03-05T10:38:05.049Z,28.63
2023-03-05T10:40:39.852Z,31.60
2023-03-05T10:43:20.022Z,34.30
2023-03-05T10:45:50.681Z,30.83
2023-03-05T10:48:29.448Z,35.77
2023-03-05T10:51:01.903Z,28.13
2023-03-05T10:53:33.989Z,30.73
2023-03-05T10:56:04.870Z,30.17
2023-03-05T10:58:32.823Z,28.70
2023-03-05T11:01:05.853Z,26.03
2023-03-05T11:03:49.794Z,25.70
2023-03-05T11:06:29.777Z,26.00
2023-03-05T11:08:58.154Z,28.47
2023-03-05T11:11:28.699Z,26.47
2023-03-05T11:13:59.413Z,31.10
2023-03-05T11:16:29.457Z,31.27
2023-03-05T11:19:18.610Z,27.87
2023-03-05T11:21:48.155Z,26.97
2023-03-05T11:24:18.232Z,29.50
2023-03-05T11:26:51.960Z,28.07
2023-03-05T11:29:25.489Z,30.23
2023-03-05T11:31:54.029Z,31.20
2023-03-05T11:34:35.289Z,32.50
2023-03-05T11:37:06.416Z,30.30
2023-03-05T11:39:38.353Z,31.13
2023-03-05T11:42:11.487Z,27.57
2023-03-05T11:44:46.270Z,26.90
2023-03-05T11:47:23.903Z,40.23
2023-03-05T11:49:56.126Z,31.50
2023-03-05T11:52:27.048Z,22.80
2023-03-05T11:55:01.611Z,29.30
2023-03-05T11:57:39.726Z,26.70
2023-03-05T12:00:14.257Z,23.87
2023-03-05T12:02:42.864Z,25.03
2023-03-05T12:05:15.824Z,24.23
2023-03-05T12:07:48.378Z,24.80
2023-03-05T12:10:18.301Z,22.80
2023-03-05T12:12:53.912Z,23.60
2023-03-05T12:15:47.914Z,28.37
2023-03-05T12:18:39.081Z,25.97
2023-03-05T12:21:09.192Z,29.53
2023-03-05T12:23:48.080Z,28.30
2023-03-05T12:26:16.194Z,28.60
2023-03-05T12:28:58.993Z,24.93
2023-03-05T12:31:39.592Z,26.00
2023-03-05T12:34:44.183Z,25.30
2023-03-05T12:37:12.846Z,23.70
2023-03-05T12:39:52.513Z,24.13
2023-03-05T12:42:46.152Z,26.83
2023-03-05T12:45:45.861Z,24.70
2023-03-05T12:48:42.919Z,21.57
2023-03-05T12:51:15.288Z,20.23
2023-03-05T12:53:43.081Z,23.10
2023-03-05T12:56:20.859Z,21.80
2023-03-05T12:58:51.623Z,25.23
2023-03-05T13:01:35.157Z,22.07
2023-03-05T13:04:10.667Z,23.47
2023-03-05T13:06:40.180Z,19.40
2023-03-05T13:09:16.547Z,72.87
2023-03-05T13:11:47.620Z,261.33
2023-03-05T13:14:27.553Z,98.53
2023-03-05T13:16:57.251Z,60.93
2023-03-05T13:19:25.578Z,60.87
2023-03-05T13:22:00.581Z,38.97
2023-03-05T13:24:29.147Z,17.97
2023-03-05T13:26:57.783Z,21.50
2023-03-05T13:29:28.139Z,22.47
2023-03-05T13:31:59.641Z,75.27
2023-03-05T13:34:40.775Z,42.93
2023-03-05T13:37:18.845Z,27.63
2023-03-05T13:39:51.007Z,27.50
2023-03-05T13:42:20.940Z,45.97
2023-03-05T13:44:55.667Z,25.43
2023-03-05T13:47:28.376Z,23.47
2023-03-05T13:50:00.420Z,22.60
2023-03-05T13:52:30.755Z,30.00
2023-03-05T13:54:59.574Z,28.97
2023-03-05T13:57:39.229Z,32.13
2023-03-05T14:00:25.019Z,16.90
2023-03-05T14:02:57.556Z,15.30
2023-03-05T14:05:26.636Z,15.83
2023-03-05T14:07:54.793Z,17.23
2023-03-05T14:10:31.337Z,16.23
2023-03-05T14:13:00.499Z,16.10
2023-03-05T14:15:30.910Z,17.27
2023-03-05T14:18:20.634Z,15.80
2023-03-05T14:21:03.929Z,15.40
2023-03-05T14:23:37.739Z,17.23
2023-03-05T14:26:29.467Z,15.77
2023-03-05T14:29:00.254Z,15.83
2023-03-05T14:31:30.629Z,14.77
2023-03-05T14:34:05.228Z,11.87
2023-03-05T14:36:34.559Z,10.43
2023-03-05T14:39:02.443Z,12.40
2023-03-05T14:41:37.911Z,11.57
2023-03-05T14:44:13.309Z,11.70
2023-03-05T14:46:41.563Z,12.47
2023-03-05T14:49:10.953Z,13.37
2023-03-05T14:51:41.826Z,10.77
2023-03-05T14:54:20.593Z,12.33
2023-03-05T14:56:49.593Z,12.30
2023-03-05T14:59:18.098Z,11.13
2023-03-05T15:01:46.054Z,13.13
2023-03-05T15:04:18.967Z,12.33
2023-03-05T15:06:50.576Z,11.33
2023-03-05T15:09:20.930Z,12.57
2023-03-05T15:11:50.107Z,13.20
2023-03-05T15:14:17.981Z,15.47
2023-03-05T15:16:47.772Z,15.00
2023-03-05T15:19:16.948Z,13.00
2023-03-05T15:21:44.809Z,15.33
2023-03-05T15:24:14.711Z,18.97
2023-03-05T15:26:42.501Z,18.13
2023-03-05T15:29:10.259Z,15.40
2023-03-05T15:31:40.347Z,18.43
2023-03-05T15:34:08.225Z,17.50
2023-03-05T15:36:37.338Z,18.17
2023-03-05T15:39:05.122Z,19.43
2023-03-05T15:41:32.907Z,17.00
2023-03-05T15:44:00.653Z,20.87
2023-03-05T15:46:28.590Z,19.93
2023-03-05T15:48:56.405Z,17.63
2023-03-05T15:51:24.166Z,17.87
2023-03-05T15:53:54.414Z,15.53
2023-03-05T15:56:22.209Z,17.97
2023-03-05T15:58:50.149Z,17.17
2023-03-05T16:01:19.302Z,21.70
2023-03-05T16:03:47.370Z,22.80
2023-03-05T16:06:16.518Z,22.93
2023-03-05T16:08:45.237Z,19.17
2023-03-05T16:11:14.617Z,22.73
2023-03-05T16:13:42.985Z,23.87
2023-03-05T16:16:11.480Z,21.03
2023-03-05T16:18:43.484Z,21.90
2023-03-05T16:21:12.026Z,24.27
2023-03-05T16:23:39.796Z,28.80
2023-03-05T16:26:10.236Z,22.40
2023-03-05T16:28:39.417Z,22.40
2023-03-05T16:31:07.329Z,27.53
2023-03-05T16:33:35.207Z,24.63
2023-03-05T16:36:24.633Z,22.73
2023-03-05T16:38:54.315Z,21.07
2023-03-05T16:41:24.401Z,20.27
2023-03-05T16:43:56.267Z,22.57
2023-03-05T16:46:25.365Z,24.40
2023-03-05T16:48:53.895Z,25.20
2023-03-05T16:51:22.546Z,25.43
2023-03-05T16:53:50.680Z,22.50
2023-03-05T16:56:19.162Z,23.30
2023-03-05T16:58:47.109Z,23.00
2023-03-05T17:01:18.860Z,23.07
2023-03-05T17:03:46.734Z,20.57
2023-03-05T17:06:17.034Z,23.37
2023-03-05T17:08:46.039Z,22.63
2023-03-05T17:11:14.550Z,25.10
2023-03-05T17:13:42.785Z,17.60
2023-03-05T17:16:12.673Z,23.87
2023-03-05T17:18:41.863Z,26.97
2023-03-05T17:21:10.462Z,22.93
2023-03-05T17:23:39.911Z,22.40
2023-03-05T17:26:08.814Z,23.50
2023-03-05T17:28:37.014Z,23.93
2023-03-05T17:31:04.915Z,27.73
2023-03-05T17:33:33.173Z,23.00
2023-03-05T17:36:03.140Z,22.50
2023-03-05T17:38:31.641Z,25.17
2023-03-05T17:40:59.500Z,24.77
2023-03-05T17:43:27.417Z,25.67
2023-03-05T17:45:59.520Z,24.90
2023-03-05T17:48:27.564Z,26.43
2023-03-05T17:50:55.910Z,24.30
2023-03-05T17:53:25.086Z,20.90
2023-03-05T17:55:53.200Z,27.87
2023-03-05T17:58:21.015Z,24.33
2023-03-05T18:00:48.902Z,24.43
2023-03-05T18:03:16.750Z,21.47
2023-03-05T18:05:44.666Z,23.30
2023-03-05T18:08:12.958Z,24.70
2023-03-05T18:10:42.121Z,26.33
2023-03-05T18:13:09.953Z,28.57
2023-03-05T18:15:41.702Z,33.87
2023-03-05T18:18:09.525Z,24.70
2023-03-05T18:20:38.144Z,26.50
2023-03-05T18:23:06.960Z,27.97
2023-03-05T18:25:35.460Z,33.30
2023-03-05T18:28:06.852Z,29.97
2023-03-05T18:30:35.159Z,30.40
2023-03-05T18:33:03.348Z,32.30
2023-03-05T18:35:32.140Z,30.50
2023-03-05T18:38:01.006Z,31.90
2023-03-05T18:40:32.434Z,28.20
2023-03-05T18:43:01.493Z,24.47
2023-03-05T18:45:32.338Z,27.50
2023-03-05T18:48:00.164Z,25.10
2023-03-05T18:50:29.704Z,23.83
2023-03-05T18:52:57.540Z,30.83
2023-03-05T18:55:27.695Z,27.93
2023-03-05T18:57:56.114Z,29.73
2023-03-05T19:00:26.305Z,29.20
2023-03-05T19:02:56.508Z,28.43
2023-03-05T19:05:26.004Z,31.23
2023-03-05T19:07:54.864Z,29.03
2023-03-05T19:10:23.586Z,30.63
2023-03-05T19:12:57.586Z,29.50
2023-03-05T19:15:25.428Z,29.77
2023-03-05T19:17:54.780Z,27.10
2023-03-05T19:20:23.958Z,28.93
2023-03-05T19:22:51.785Z,31.63
2023-03-05T19:25:19.736Z,32.00
2023-03-05T19:27:47.549Z,29.87
2023-03-05T19:30:16.413Z,28.90
2023-03-05T19:32:47.036Z,31.50
2023-03-05T19:35:16.775Z,27.07
2023-03-05T19:37:46.112Z,27.50
2023-03-05T19:40:14.967Z,29.00
2023-03-05T19:42:42.779Z,31.47
2023-03-05T19:45:11.372Z,27.83
2023-03-05T19:47:39.258Z,28.07
2023-03-05T19:50:08.193Z,25.90
2023-03-05T19:52:35.973Z,32.30
2023-03-05T19:55:05.731Z,27.60
2023-03-05T19:57:33.660Z,27.33
2023-03-05T20:00:01.554Z,29.63
2023-03-05T20:02:29.731Z,25.93
2023-03-05T20:04:57.570Z,30.93
2023-03-05T20:07:25.381Z,24.50
2023-03-05T20:09:55.388Z,26.07
2023-03-05T20:12:24.758Z,28.77
2023-03-05T20:14:52.517Z,26.40
2023-03-05T20:17:20.590Z,27.93
2023-03-05T20:19:48.374Z,28.17
2023-03-05T20:22:16.190Z,30.47
2023-03-05T20:24:44.029Z,22.03
2023-03-05T20:27:11.834Z,28.33
2023-03-05T20:29:40.958Z,26.30
2023-03-05T20:32:08.840Z,26.83
2023-03-05T20:34:36.646Z,30.80
2023-03-05T20:37:04.999Z,27.47
2023-03-05T20:39:32.876Z,24.90
2023-03-05T20:42:00.910Z,28.00
2023-03-05T20:44:28.694Z,24.47
2023-03-05T20:47:12.474Z,28.93
2023-03-05T20:49:40.298Z,28.67
2023-03-05T20:52:08.090Z,26.50
2023-03-05T20:54:36.302Z,25.33
2023-03-05T20:57:04.109Z,20.43
2023-03-05T20:59:31.899Z,16.10
2023-03-05T21:02:01.072Z,23.77
2023-03-05T21:04:28.946Z,30.77
2023-03-05T21:06:56.733Z,30.50
2023-03-05T21:09:24.566Z,26.90
2023-03-05T21:11:52.384Z,25.67
2023-03-05T21:14:20.169Z,29.70
2023-03-05T21:16:47.975Z,28.67
2023-03-05T21:19:17.257Z,34.43
2023-03-05T21:21:45.756Z,30.73
2023-03-05T21:24:13.931Z,30.70
2023-03-05T21:26:41.731Z,30.67
2023-03-05T21:29:09.504Z,29.20
2023-03-05T21:31:37.771Z,28.47
2023-03-05T21:34:05.572Z,25.80
2023-03-05T21:36:35.050Z,23.53
2023-03-05T21:39:02.853Z,19.67
2023-03-05T21:41:31.085Z,26.00
2023-03-05T21:44:03.878Z,26.07
2023-03-05T21:46:31.719Z,24.63
2023-03-05T21:48:59.509Z,29.40
2023-03-05T21:51:38.296Z,26.57
2023-03-05T21:54:08.909Z,25.07
2023-03-05T21:56:36.808Z,23.37
2023-03-05T21:59:04.631Z,24.70
2023-03-05T22:01:32.503Z,18.50
2023-03-05T22:04:00.495Z,20.70
2023-03-05T22:06:28.394Z,20.83
2023-03-05T22:08:56.156Z,18.80
2023-03-05T22:11:25.272Z,21.90
2023-03-05T22:13:53.095Z,17.00
2023-03-05T22:16:25.676Z,22.27
2023-03-05T22:18:54.407Z,25.43
2023-03-05T22:21:25.691Z,20.80
2023-03-05T22:23:54.260Z,24.10
2023-03-05T22:26:22.089Z,20.20
2023-03-05T22:28:51.304Z,21.00
2023-03-05T22:31:22.758Z,17.37
2023-03-05T22:33:50.694Z,14.77
2023-03-05T22:36:19.308Z,16.33
2023-03-05T22:38:47.498Z,16.90
2023-03-05T22:41:19.585Z,14.80
2023-03-05T22:43:48.251Z,17.57
2023-03-05T22:46:19.374Z,14.70
2023-03-05T22:48:47.624Z,17.30
2023-03-05T22:51:16.893Z,19.17
2023-03-05T22:53:45.037Z,17.10
2023-03-05T22:56:15.061Z,20.43
2023-03-05T22:58:43.159Z,17.93
2023-03-05T23:01:14.543Z,19.73
2023-03-05T23:03:44.168Z,15.93
2023-03-05T23:06:12.001Z,16.93
2023-03-05T23:08:39.814Z,18.20
2023-03-05T23:11:12.258Z,16.87
2023-03-05T23:13:40.550Z,14.23
2023-03-05T23:16:09.372Z,14.77
2023-03-05T23:18:37.330Z,15.50
2023-03-05T23:21:06.745Z,13.53
2023-03-05T23:23:34.627Z,12.60
2023-03-05T23:26:02.833Z,12.80
2023-03-05T23:28:30.697Z,12.73
2023-03-05T23:30:59.004Z,12.50
2023-03-05T23:33:27.910Z,7.47
2023-03-05T23:35:58.206Z,8.33
2023-03-05T23:38:29.257Z,9.77
2023-03-05T23:41:01.051Z,10.93
2023-03-05T23:43:29.519Z,8.80
2023-03-05T23:45:58.157Z,8.90
2023-03-05T23:48:27.393Z,10.37
2023-03-05T23:50:55.740Z,11.53
2023-03-05T23:53:25.857Z,10.60
2023-03-05T23:55:55.335Z,11.60
2023-03-05T23:58:23.829Z,9.27
